createdAt,value
2018-11-28T00:00:10.719Z,5.07
2018-11-28T00:02:39.051Z,4.53
2018-11-28T00:05:10.754Z,4.07
2018-11-28T00:07:39.142Z,5.77
2018-11-28T00:10:10.061Z,6.43
2018-11-28T00:12:38.758Z,4.20
2018-11-28T00:15:08.363Z,4.80
2018-11-28T00:17:36.719Z,5.50
2018-11-28T00:20:07.579Z,5.47
2018-11-28T00:22:35.939Z,5.77
2018-11-28T00:25:04.523Z,5.23
2018-11-28T00:27:32.846Z,5.33
2018-11-28T00:30:01.156Z,5.87
2018-11-28T00:32:29.479Z,4.13
2018-11-28T00:34:57.785Z,4.93
2018-11-28T00:37:26.102Z,4.40
2018-11-28T00:39:54.407Z,4.37
2018-11-28T00:42:26.964Z,5.23
2018-11-28T00:44:55.273Z,8.60
2018-11-28T00:47:23.607Z,12.23
2018-11-28T00:49:51.945Z,10.70
2018-11-28T00:52:20.276Z,10.23
2018-11-28T00:54:48.584Z,4.63
2018-11-28T00:57:16.917Z,11.47
2018-11-28T00:59:45.235Z,10.60
2018-11-28T01:02:13.561Z,10.77
2018-11-28T01:04:41.875Z,12.57
2018-11-28T01:07:10.216Z,11.93
2018-11-28T01:09:38.536Z,12.03
2018-11-28T01:12:06.879Z,13.10
2018-11-28T01:14:35.193Z,12.50
2018-11-28T01:17:03.547Z,11.90
2018-11-28T01:19:31.854Z,8.50
2018-11-28T01:22:00.170Z,5.07
2018-11-28T01:24:28.474Z,4.43
2018-11-28T01:26:56.795Z,5.23
2018-11-28T01:29:25.118Z,4.20
2018-11-28T01:31:53.453Z,4.30
2018-11-28T01:34:21.762Z,3.70
2018-11-28T01:36:50.092Z,5.13
2018-11-28T01:39:18.399Z,4.27
2018-11-28T01:41:46.725Z,3.70
2018-11-28T01:44:15.031Z,4.20
2018-11-28T01:46:43.358Z,4.37
2018-11-28T01:49:11.687Z,3.87
2018-11-28T01:51:40.017Z,6.17
2018-11-28T01:54:08.330Z,3.57
2018-11-28T01:56:36.658Z,4.10
2018-11-28T01:59:05.039Z,3.83
2018-11-28T02:01:33.391Z,3.57
2018-11-28T02:04:01.703Z,3.63
2018-11-28T02:06:30.076Z,4.80
2018-11-28T02:08:58.407Z,4.40
2018-11-28T02:11:26.716Z,4.27
2018-11-28T02:13:55.044Z,3.97
2018-11-28T02:16:23.353Z,4.30
2018-11-28T02:18:51.751Z,4.30
2018-11-28T02:21:20.071Z,3.83
2018-11-28T02:23:48.399Z,3.90
2018-11-28T02:26:16.721Z,9.03
2018-11-28T02:28:45.046Z,9.67
2018-11-28T02:31:13.358Z,5.70
2018-11-28T02:33:41.682Z,6.63
2018-11-28T02:36:10.009Z,8.27
2018-11-28T02:38:38.356Z,9.20
2018-11-28T02:41:06.678Z,10.60
2018-11-28T02:43:35.012Z,4.67
2018-11-28T02:46:14.790Z,3.77
2018-11-28T02:48:43.148Z,3.70
2018-11-28T02:51:11.466Z,3.63
2018-11-28T02:53:39.792Z,4.63
2018-11-28T02:56:08.108Z,3.20
2018-11-28T02:58:36.439Z,3.30
2018-11-28T03:01:04.805Z,4.07
2018-11-28T03:03:33.132Z,4.23
2018-11-28T03:06:01.451Z,3.30
2018-11-28T03:08:29.780Z,3.70
2018-11-28T03:10:58.089Z,3.77
2018-11-28T03:13:26.443Z,3.50
2018-11-28T03:15:54.768Z,3.67
2018-11-28T03:18:23.631Z,3.43
2018-11-28T03:20:51.943Z,3.67
2018-11-28T03:23:20.271Z,3.37
2018-11-28T03:25:48.594Z,4.47
2018-11-28T03:28:16.919Z,3.70
2018-11-28T03:30:45.231Z,3.27
2018-11-28T03:33:13.568Z,4.20
2018-11-28T03:35:41.890Z,9.30
2018-11-28T03:38:10.236Z,10.07
2018-11-28T03:40:38.552Z,9.40
2018-11-28T03:43:07.246Z,7.23
2018-11-28T03:45:35.558Z,4.90
2018-11-28T03:48:03.918Z,3.47
2018-11-28T03:50:32.223Z,8.53
2018-11-28T03:53:00.579Z,8.47
2018-11-28T03:55:28.884Z,4.27
2018-11-28T03:57:57.213Z,3.20
2018-11-28T04:00:25.537Z,3.33
2018-11-28T04:02:53.868Z,4.53
2018-11-28T04:05:22.183Z,5.03
2018-11-28T04:07:50.515Z,2.83
2018-11-28T04:10:18.831Z,4.17
2018-11-28T04:12:47.166Z,9.63
2018-11-28T04:15:19.300Z,9.03
2018-11-28T04:17:47.680Z,9.47
2018-11-28T04:20:18.038Z,8.27
2018-11-28T04:22:46.387Z,6.47
2018-11-28T04:25:15.614Z,8.93
2018-11-28T04:27:43.938Z,8.57
2018-11-28T04:30:16.362Z,4.37
2018-11-28T04:32:44.793Z,3.60
2018-11-28T04:35:14.039Z,8.33
2018-11-28T04:37:43.026Z,10.10
2018-11-28T04:40:12.446Z,5.30
2018-11-28T04:42:40.783Z,3.47
2018-11-28T04:45:11.590Z,3.67
2018-11-28T04:47:39.906Z,3.40
2018-11-28T04:50:10.181Z,4.40
2018-11-28T04:52:38.657Z,8.47
2018-11-28T04:55:10.542Z,7.60
2018-11-28T04:57:38.855Z,9.40
2018-11-28T05:00:11.487Z,8.10
2018-11-28T05:02:39.827Z,8.23
2018-11-28T05:05:09.057Z,10.90
2018-11-28T05:07:37.368Z,9.83
2018-11-28T05:10:12.782Z,10.70
2018-11-28T05:12:41.115Z,11.03
2018-11-28T05:15:11.480Z,10.73
2018-11-28T05:17:40.011Z,11.87
2018-11-28T05:20:10.683Z,9.33
2018-11-28T05:22:39.021Z,10.07
2018-11-28T05:25:16.976Z,11.07
2018-11-28T05:27:45.336Z,10.87
2018-11-28T05:30:16.712Z,10.80
2018-11-28T05:32:45.039Z,11.63
2018-11-28T05:35:14.703Z,10.90
2018-11-28T05:37:43.107Z,10.17
2018-11-28T05:40:12.979Z,11.20
2018-11-28T05:42:41.295Z,10.87
2018-11-28T05:45:10.762Z,12.50
2018-11-28T05:47:39.074Z,12.30
2018-11-28T05:50:10.003Z,13.40
2018-11-28T05:52:38.414Z,12.67
2018-11-28T05:55:08.486Z,12.93
2018-11-28T05:57:36.979Z,14.10
2018-11-28T06:00:10.707Z,11.27
2018-11-28T06:02:39.074Z,13.07
2018-11-28T06:05:08.730Z,11.93
2018-11-28T06:07:37.083Z,11.57
2018-11-28T06:10:06.317Z,14.33
2018-11-28T06:12:34.643Z,15.33
2018-11-28T06:15:02.976Z,14.17
2018-11-28T06:17:31.295Z,13.17
2018-11-28T06:19:59.700Z,13.27
2018-11-28T06:22:28.002Z,14.40
2018-11-28T06:24:56.339Z,14.57
2018-11-28T06:27:24.650Z,15.23
2018-11-28T06:29:52.996Z,15.13
2018-11-28T06:32:21.322Z,15.53
2018-11-28T06:34:49.670Z,15.73
2018-11-28T06:37:17.983Z,16.70
2018-11-28T06:39:46.319Z,15.27
2018-11-28T06:42:14.644Z,15.07
2018-11-28T06:44:42.989Z,14.47
2018-11-28T06:47:11.309Z,16.37
2018-11-28T06:49:39.740Z,16.87
2018-11-28T06:52:08.052Z,17.13
2018-11-28T06:54:36.483Z,16.80
2018-11-28T06:57:04.802Z,15.97
2018-11-28T06:59:33.143Z,16.63
2018-11-28T07:02:01.451Z,17.27
2018-11-28T07:04:29.775Z,17.63
2018-11-28T07:06:58.091Z,17.93
2018-11-28T07:09:26.427Z,16.47
2018-11-28T07:11:54.747Z,16.63
2018-11-28T07:14:23.088Z,15.43
2018-11-28T07:16:51.402Z,17.47
2018-11-28T07:19:19.731Z,20.33
2018-11-28T07:21:48.050Z,18.97
2018-11-28T07:24:16.434Z,18.43
2018-11-28T07:26:44.755Z,18.17
2018-11-28T07:29:13.115Z,18.43
2018-11-28T07:31:41.437Z,17.67
2018-11-28T07:34:09.771Z,18.17
2018-11-28T07:36:38.108Z,19.37
2018-11-28T07:39:06.498Z,18.13
2018-11-28T07:41:34.838Z,18.67
2018-11-28T07:44:03.158Z,19.67
2018-11-28T07:46:31.497Z,19.60
2018-11-28T07:48:59.856Z,18.50
2018-11-28T07:51:28.198Z,17.77
2018-11-28T07:53:56.526Z,18.73
2018-11-28T07:56:24.871Z,22.50
2018-11-28T07:58:53.182Z,20.43
2018-11-28T08:01:21.527Z,21.63
2018-11-28T08:03:49.874Z,23.90
2018-11-28T08:06:18.238Z,20.97
2018-11-28T08:08:46.559Z,21.40
2018-11-28T08:11:14.896Z,21.43
2018-11-28T08:13:43.212Z,21.30
2018-11-28T08:16:11.543Z,21.70
2018-11-28T08:18:39.855Z,22.13
2018-11-28T08:21:08.195Z,22.27
2018-11-28T08:23:36.535Z,23.57
2018-11-28T08:26:06.563Z,22.47
2018-11-28T08:28:36.130Z,22.77
2018-11-28T08:31:03.379Z,24.13
2018-11-28T08:33:31.691Z,24.20
2018-11-28T08:36:00.031Z,24.33
2018-11-28T08:38:28.374Z,24.50
2018-11-28T08:40:56.817Z,25.60
2018-11-28T08:43:25.144Z,24.10
2018-11-28T08:45:53.767Z,23.70
2018-11-28T08:48:22.111Z,25.30
2018-11-28T08:50:50.451Z,23.60
2018-11-28T08:53:18.758Z,25.40
2018-11-28T08:55:47.092Z,23.80
2018-11-28T08:58:15.411Z,25.47
2018-11-28T09:00:43.746Z,24.40
2018-11-28T09:03:12.072Z,26.90
2018-11-28T09:05:40.411Z,23.93
2018-11-28T09:08:08.799Z,23.67
2018-11-28T09:10:37.147Z,24.80
2018-11-28T09:13:06.528Z,25.43
2018-11-28T09:15:34.875Z,26.40
2018-11-28T09:18:03.196Z,24.23
2018-11-28T09:20:31.560Z,25.07
2018-11-28T09:22:59.872Z,24.10
2018-11-28T09:25:28.205Z,25.07
2018-11-28T09:27:57.814Z,26.17
2018-11-28T09:30:26.158Z,21.73
2018-11-28T09:32:54.502Z,24.57
2018-11-28T09:35:22.896Z,22.00
2018-11-28T09:37:51.226Z,24.20
2018-11-28T09:40:24.464Z,25.00
2018-11-28T09:42:54.822Z,23.97
2018-11-28T09:45:23.228Z,25.63
2018-11-28T09:47:51.563Z,21.70
2018-11-28T09:50:20.935Z,23.00
2018-11-28T09:52:49.263Z,24.17
2018-11-28T09:55:19.752Z,23.93
2018-11-28T09:57:48.113Z,24.37
2018-11-28T10:00:18.480Z,24.73
2018-11-28T10:02:46.931Z,23.90
2018-11-28T10:05:31.715Z,22.87
2018-11-28T10:08:00.150Z,23.70
2018-11-28T10:10:28.598Z,22.17
2018-11-28T10:12:56.990Z,23.87
2018-11-28T10:15:26.460Z,21.53
2018-11-28T10:17:54.775Z,21.30
2018-11-28T10:20:23.128Z,21.00
2018-11-28T10:22:52.404Z,21.93
2018-11-28T10:25:27.664Z,20.93
2018-11-28T10:27:58.464Z,20.60
2018-11-28T10:30:29.272Z,19.27
2018-11-28T10:32:57.511Z,20.07
2018-11-28T10:35:25.928Z,19.00
2018-11-28T10:37:54.251Z,19.27
2018-11-28T10:40:23.299Z,20.33
2018-11-28T10:42:52.734Z,20.30
2018-11-28T10:45:21.950Z,19.20
2018-11-28T10:47:50.295Z,20.07
2018-11-28T10:50:18.635Z,19.03
2018-11-28T10:52:46.998Z,19.90
2018-11-28T10:55:17.306Z,20.10
2018-11-28T10:57:45.692Z,19.73
2018-11-28T11:00:20.430Z,20.33
2018-11-28T11:02:54.195Z,21.13
2018-11-28T11:05:27.823Z,20.53
2018-11-28T11:08:01.500Z,21.07
2018-11-28T11:10:35.187Z,21.50
2018-11-28T11:13:08.866Z,20.20
2018-11-28T11:15:37.239Z,20.60
2018-11-28T11:18:10.525Z,21.50
2018-11-28T11:20:35.486Z,20.97
2018-11-28T11:23:03.852Z,22.13
2018-11-28T11:25:32.179Z,19.33
2018-11-28T11:28:00.525Z,19.67
2018-11-28T11:30:28.863Z,20.50
2018-11-28T11:32:57.191Z,21.23
2018-11-28T11:35:26.570Z,20.57
2018-11-28T11:37:55.604Z,19.70
2018-11-28T11:40:24.806Z,19.37
2018-11-28T11:42:54.030Z,21.43
2018-11-28T11:45:22.400Z,21.37
2018-11-28T11:47:50.985Z,19.40
2018-11-28T11:50:19.639Z,20.53
2018-11-28T11:52:47.959Z,21.37
2018-11-28T11:55:18.242Z,20.20
2018-11-28T11:57:46.983Z,20.37
2018-11-28T12:00:21.661Z,20.40
2018-11-28T12:03:21.007Z,20.17
2018-11-28T12:05:53.836Z,19.17
2018-11-28T12:08:22.900Z,20.83
2018-11-28T12:10:51.258Z,18.87
2018-11-28T12:13:19.570Z,19.50
2018-11-28T12:15:47.916Z,19.00
2018-11-28T12:18:16.374Z,19.53
2018-11-28T12:20:47.159Z,19.80
2018-11-28T12:23:15.467Z,17.90
2018-11-28T12:25:43.802Z,19.17
2018-11-28T12:28:12.126Z,17.83
2018-11-28T12:30:40.467Z,17.10
2018-11-28T12:33:08.778Z,18.13
2018-11-28T12:35:37.143Z,19.10
2018-11-28T12:38:05.704Z,18.63
2018-11-28T12:40:35.137Z,19.03
2018-11-28T12:43:04.307Z,17.83
2018-11-28T12:45:32.634Z,17.53
2018-11-28T12:48:01.041Z,17.07
2018-11-28T12:50:30.650Z,17.00
2018-11-28T12:53:00.287Z,18.00
2018-11-28T12:55:29.373Z,16.17
2018-11-28T12:57:57.998Z,16.20
2018-11-28T13:00:28.479Z,16.90
2018-11-28T13:02:56.889Z,18.83
2018-11-28T13:05:26.271Z,17.97
2018-11-28T13:07:54.602Z,17.63
2018-11-28T13:10:29.071Z,17.30
2018-11-28T13:12:57.411Z,16.67
2018-11-28T13:15:26.414Z,17.17
2018-11-28T13:17:54.742Z,17.47
2018-11-28T13:20:23.175Z,16.73
2018-11-28T13:22:52.770Z,15.93
2018-11-28T13:25:27.039Z,17.50
2018-11-28T13:27:55.500Z,15.87
2018-11-28T13:30:24.686Z,16.07
2018-11-28T13:32:53.715Z,17.03
2018-11-28T13:35:25.870Z,16.10
2018-11-28T13:37:57.538Z,16.20
2018-11-28T13:40:25.843Z,16.17
2018-11-28T13:42:54.167Z,15.30
2018-11-28T13:45:26.564Z,14.73
2018-11-28T13:47:55.367Z,15.57
2018-11-28T13:50:23.686Z,15.80
2018-11-28T13:52:53.018Z,17.27
2018-11-28T13:55:41.116Z,16.27
2018-11-28T13:57:52.328Z,16.77
2018-11-28T14:00:20.663Z,16.50
2018-11-28T14:02:49.010Z,15.50
2018-11-28T14:05:17.318Z,15.70
2018-11-28T14:07:45.647Z,15.77
2018-11-28T14:10:14.836Z,16.27
2018-11-28T14:12:43.183Z,15.97
2018-11-28T14:15:15.515Z,16.40
2018-11-28T14:17:52.095Z,16.77
2018-11-28T14:20:20.398Z,17.30
2018-11-28T14:22:48.743Z,17.33
2018-11-28T14:25:17.091Z,16.50
2018-11-28T14:27:45.451Z,16.17
2018-11-28T14:30:19.492Z,16.23
2018-11-28T14:32:47.986Z,15.70
2018-11-28T14:35:16.462Z,16.87
2018-11-28T14:37:45.135Z,15.77
2018-11-28T14:40:16.599Z,17.30
2018-11-28T14:42:46.192Z,17.90
2018-11-28T14:45:15.718Z,17.07
2018-11-28T14:47:44.292Z,17.07
2018-11-28T14:50:13.788Z,16.93
2018-11-28T14:52:42.128Z,16.53
2018-11-28T14:55:11.768Z,17.47
2018-11-28T14:57:40.583Z,16.53
2018-11-28T15:00:40.023Z,16.87
2018-11-28T15:03:18.307Z,17.00
2018-11-28T15:06:51.489Z,18.10
2018-11-28T15:09:25.406Z,18.10
2018-11-28T15:11:53.751Z,17.53
2018-11-28T15:14:22.059Z,17.17
2018-11-28T15:16:50.382Z,18.47
2018-11-28T15:19:18.754Z,17.13
2018-11-28T15:21:50.919Z,17.97
2018-11-28T15:24:19.243Z,18.50
2018-11-28T15:26:47.635Z,18.07
2018-11-28T15:29:15.938Z,18.17
2018-11-28T15:31:44.252Z,17.77
2018-11-28T15:34:12.591Z,18.83
2018-11-28T15:36:40.931Z,17.43
2018-11-28T15:39:09.707Z,18.87
2018-11-28T15:41:38.666Z,19.33
2018-11-28T15:44:06.994Z,18.60
2018-11-28T15:46:35.320Z,18.67
2018-11-28T15:49:03.660Z,19.90
2018-11-28T15:51:31.964Z,18.43
2018-11-28T15:54:00.492Z,20.17
2018-11-28T15:56:28.803Z,19.27
2018-11-28T15:58:57.143Z,18.60
2018-11-28T16:01:25.482Z,19.67
2018-11-28T16:03:53.905Z,19.30
2018-11-28T16:06:22.250Z,19.63
2018-11-28T16:08:55.009Z,19.40
2018-11-28T16:11:24.163Z,21.87
2018-11-28T16:13:52.522Z,20.37
2018-11-28T16:16:20.831Z,20.73
2018-11-28T16:18:49.151Z,18.87
2018-11-28T16:21:17.567Z,25.27
2018-11-28T16:23:45.895Z,22.10
2018-11-28T16:26:14.246Z,21.50
2018-11-28T16:28:42.623Z,21.40
2018-11-28T16:31:10.939Z,20.80
2018-11-28T16:33:39.268Z,19.70
2018-11-28T16:36:07.596Z,20.67
2018-11-28T16:38:35.922Z,20.10
2018-11-28T16:41:04.507Z,20.70
2018-11-28T16:43:32.876Z,19.33
2018-11-28T16:46:01.195Z,20.10
2018-11-28T16:48:29.580Z,19.40
2018-11-28T16:50:57.987Z,19.57
2018-11-28T16:53:26.387Z,17.83
2018-11-28T16:55:54.708Z,20.77
2018-11-28T16:58:23.138Z,19.80
2018-11-28T17:00:51.486Z,18.43
2018-11-28T17:03:19.806Z,20.23
2018-11-28T17:05:48.113Z,19.93
2018-11-28T17:08:16.439Z,19.90
2018-11-28T17:10:44.758Z,20.47
2018-11-28T17:13:13.100Z,19.30
2018-11-28T17:15:41.419Z,19.27
2018-11-28T17:18:09.770Z,18.50
2018-11-28T17:20:40.929Z,18.53
2018-11-28T17:23:09.269Z,20.17
2018-11-28T17:25:37.810Z,20.20
2018-11-28T17:28:06.513Z,20.50
2018-11-28T17:30:35.051Z,18.50
2018-11-28T17:33:03.412Z,20.27
2018-11-28T17:35:31.771Z,19.97
2018-11-28T17:38:00.095Z,20.53
2018-11-28T17:40:29.202Z,19.60
2018-11-28T17:42:58.706Z,19.50
2018-11-28T17:45:27.774Z,20.10
2018-11-28T17:47:56.118Z,18.93
2018-11-28T17:50:25.362Z,19.33
2018-11-28T17:53:04.606Z,19.47
2018-11-28T17:55:37.134Z,19.77
2018-11-28T17:58:05.981Z,20.03
2018-11-28T18:00:34.304Z,22.20
2018-11-28T18:03:02.689Z,19.83
2018-11-28T18:05:31.003Z,18.90
2018-11-28T18:07:59.307Z,21.70
2018-11-28T18:10:27.636Z,19.90
2018-11-28T18:13:07.298Z,19.37
2018-11-28T18:15:35.636Z,20.47
2018-11-28T18:18:04.266Z,19.90
2018-11-28T18:20:32.590Z,21.03
2018-11-28T18:23:00.903Z,20.07
2018-11-28T18:25:30.527Z,20.70
2018-11-28T18:27:58.848Z,19.73
2018-11-28T18:30:27.254Z,20.00
2018-11-28T18:32:55.615Z,20.20
2018-11-28T18:35:24.011Z,21.00
2018-11-28T18:37:52.345Z,20.00
2018-11-28T18:40:20.671Z,20.97
2018-11-28T18:42:49.038Z,19.73
2018-11-28T18:45:18.792Z,21.03
2018-11-28T18:47:47.134Z,20.90
2018-11-28T18:50:16.209Z,20.97
2018-11-28T18:52:45.023Z,19.33
2018-11-28T18:55:16.975Z,19.93
2018-11-28T18:57:45.582Z,19.63
2018-11-28T19:00:15.471Z,20.20
2018-11-28T19:02:43.822Z,19.60
2018-11-28T19:05:12.295Z,19.63
2018-11-28T19:07:40.612Z,19.73
2018-11-28T19:10:17.085Z,19.80
2018-11-28T19:12:46.286Z,19.97
2018-11-28T19:15:16.911Z,19.23
2018-11-28T19:17:46.223Z,18.97
2018-11-28T19:20:15.669Z,19.13
2018-11-28T19:22:44.622Z,20.40
2018-11-28T19:25:14.155Z,19.07
2018-11-28T19:27:42.613Z,20.00
2018-11-28T19:30:14.006Z,19.30
2018-11-28T19:35:22.215Z,19.03
2018-11-28T19:37:50.558Z,19.97
2018-11-28T19:40:27.667Z,19.87
2018-11-28T19:42:55.976Z,17.77
2018-11-28T19:45:24.319Z,19.60
2018-11-28T19:47:52.667Z,19.77
2018-11-28T19:50:29.655Z,19.27
2018-11-28T19:52:57.972Z,18.50
2018-11-28T19:55:26.310Z,18.60
2018-11-28T19:57:54.643Z,20.33
2018-11-28T20:00:23.103Z,19.90
2018-11-28T20:02:51.427Z,19.67
2018-11-28T20:05:19.782Z,20.30
2018-11-28T20:07:49.238Z,19.37
2018-11-28T20:10:19.684Z,19.47
2018-11-28T20:12:48.007Z,20.47
2018-11-28T20:15:22.492Z,19.43
2018-11-28T20:17:51.058Z,19.77
2018-11-28T20:20:19.535Z,20.50
2018-11-28T20:22:47.852Z,18.80
2018-11-28T20:25:17.164Z,20.20
2018-11-28T20:27:49.582Z,20.20
2018-11-28T20:30:21.256Z,18.70
2018-11-28T20:32:49.563Z,19.77
2018-11-28T20:35:17.910Z,19.10
2018-11-28T20:37:46.218Z,18.80
2018-11-28T20:40:15.808Z,19.30
2018-11-28T20:42:50.414Z,19.50
2018-11-28T20:45:18.779Z,19.73
2018-11-28T20:47:47.083Z,19.83
2018-11-28T20:50:23.056Z,19.77
2018-11-28T20:52:55.017Z,19.73
2018-11-28T20:55:21.331Z,19.80
2018-11-28T20:57:49.638Z,20.13
2018-11-28T21:00:19.422Z,20.87
2018-11-28T21:02:47.735Z,20.47
2018-11-28T21:05:16.058Z,20.07
2018-11-28T21:07:44.382Z,20.27
2018-11-28T21:10:19.238Z,19.27
2018-11-28T21:12:47.546Z,19.97
2018-11-28T21:15:15.871Z,20.27
2018-11-28T21:17:44.930Z,20.77
2018-11-28T21:20:14.534Z,23.07
2018-11-28T21:22:43.404Z,20.37
2018-11-28T21:25:12.306Z,21.53
2018-11-28T21:27:40.646Z,20.63
2018-11-28T21:30:10.734Z,21.77
2018-11-28T21:32:39.066Z,21.53
2018-11-28T21:35:10.252Z,20.20
2018-11-28T21:37:38.623Z,20.53
2018-11-28T21:40:07.414Z,21.30
2018-11-28T21:42:35.731Z,21.10
2018-11-28T21:45:04.486Z,19.40
2018-11-28T21:47:32.833Z,21.57
2018-11-28T21:50:01.163Z,20.53
2018-11-28T21:52:29.471Z,20.57
2018-11-28T21:54:57.795Z,20.07
2018-11-28T21:57:26.102Z,20.77
2018-11-28T21:59:54.431Z,19.80
2018-11-28T22:02:22.738Z,20.27
2018-11-28T22:04:51.097Z,19.83
2018-11-28T22:07:19.408Z,20.53
2018-11-28T22:09:47.717Z,21.40
2018-11-28T22:12:22.674Z,21.33
2018-11-28T22:14:50.986Z,19.73
2018-11-28T22:17:19.318Z,19.83
2018-11-28T22:19:47.636Z,20.87
2018-11-28T22:22:15.966Z,21.00
2018-11-28T22:24:44.275Z,21.07
2018-11-28T22:27:12.606Z,21.67
2018-11-28T22:29:40.918Z,19.70
2018-11-28T22:32:09.250Z,20.33
2018-11-28T22:34:37.558Z,21.13
2018-11-28T22:37:05.938Z,21.03
2018-11-28T22:39:34.247Z,19.97
2018-11-28T22:42:02.586Z,19.07
2018-11-28T22:44:30.890Z,20.07
2018-11-28T22:46:59.218Z,20.67
2018-11-28T22:49:27.531Z,20.10
2018-11-28T22:51:55.862Z,18.73
2018-11-28T22:54:24.174Z,20.67
2018-11-28T22:56:52.508Z,20.17
2018-11-28T22:59:20.818Z,21.60
2018-11-28T23:03:58.630Z,20.87
2018-11-28T23:06:26.972Z,19.10
2018-11-28T23:08:55.302Z,20.37
2018-11-28T23:11:23.687Z,19.63
2018-11-28T23:13:51.994Z,20.60
2018-11-28T23:16:20.319Z,20.03
2018-11-28T23:18:48.630Z,20.37
2018-11-28T23:21:16.954Z,20.83
2018-11-28T23:23:45.264Z,19.90
2018-11-28T23:26:13.591Z,21.43
2018-11-28T23:28:41.898Z,19.97
2018-11-28T23:31:10.238Z,18.57
2018-11-28T23:33:38.556Z,19.63
2018-11-28T23:36:06.912Z,20.43
2018-11-28T23:38:35.219Z,19.90
2018-11-28T23:41:03.551Z,19.53
2018-11-28T23:43:31.899Z,18.67
2018-11-28T23:46:00.226Z,20.23
2018-11-28T23:48:28.540Z,20.23
2018-11-28T23:50:56.867Z,20.17
2018-11-28T23:53:25.167Z,20.03
2018-11-28T23:55:53.504Z,20.63
2018-11-28T23:58:21.815Z,20.80
